createdAt,value
2019-04-09T00:02:51.025Z,99575.23
2019-04-09T00:05:54.472Z,99573.33
2019-04-09T00:08:58.336Z,99578.41
2019-04-09T00:12:02.695Z,99569.83
2019-04-09T00:15:07.211Z,99569.09
2019-04-09T00:18:10.208Z,99566.30
2019-04-09T00:21:13.491Z,99568.20
2019-04-09T00:24:16.803Z,99565.47
2019-04-09T00:27:20.575Z,99559.62
2019-04-09T00:30:23.615Z,99565.46
2019-04-09T00:33:26.642Z,99569.20
2019-04-09T00:36:30.244Z,99559.89
2019-04-09T00:39:33.163Z,99555.03
2019-04-09T00:42:36.083Z,99561.95
2019-04-09T00:45:39.416Z,99556.52
2019-04-09T00:48:42.407Z,99557.14
2019-04-09T00:51:45.602Z,99550.79
2019-04-09T00:54:48.522Z,99558.44
2019-04-09T00:57:51.818Z,99561.49
2019-04-09T01:00:59.721Z,99562.77
2019-04-09T01:04:03.486Z,99559.51
2019-04-09T01:07:06.575Z,99557.97
2019-04-09T01:10:10.216Z,99558.78
2019-04-09T01:13:14.068Z,99561.12
2019-04-09T01:16:17.912Z,99555.00
2019-04-09T01:19:22.122Z,99553.93
2019-04-09T01:22:26.870Z,99559.45
2019-04-09T01:25:39.247Z,99560.17
2019-04-09T01:29:01.836Z,99557.37
2019-04-09T01:32:29.520Z,99559.66
2019-04-09T01:35:47.100Z,99564.59
2019-04-09T01:39:09.961Z,99564.67
2019-04-09T01:42:23.235Z,99562.52
2019-04-09T01:45:33.283Z,99558.94
2019-04-09T01:48:47.496Z,99564.89
2019-04-09T01:52:25.362Z,99560.39
2019-04-09T01:55:47.079Z,99566.06
2019-04-09T01:59:09.611Z,99567.83
2019-04-09T02:02:32.731Z,99569.34
2019-04-09T02:06:04.734Z,99570.42
2019-04-09T02:09:33.847Z,99568.84
2019-04-09T02:12:45.168Z,99568.47
2019-04-09T02:16:14.549Z,99567.30
2019-04-09T02:19:41.660Z,99571.02
2019-04-09T02:22:56.692Z,99559.47
2019-04-09T02:26:12.748Z,99563.73
2019-04-09T02:29:38.941Z,99559.09
2019-04-09T02:33:00.716Z,99564.70
2019-04-09T02:36:20.597Z,99560.09
2019-04-09T02:39:45.350Z,99564.58
2019-04-09T02:43:04.839Z,99566.24
2019-04-09T02:46:31.551Z,99565.30
2019-04-09T02:49:39.944Z,99572.02
2019-04-09T02:53:05.228Z,99572.38
2019-04-09T02:56:30.564Z,99571.05
2019-04-09T02:59:53.868Z,99571.97
2019-04-09T03:03:08.807Z,99576.17
2019-04-09T03:06:27.891Z,99574.39
2019-04-09T03:09:51.333Z,99563.86
2019-04-09T03:13:13.039Z,99575.35
2019-04-09T03:16:35.532Z,99580.88
2019-04-09T03:19:53.783Z,99570.03
2019-04-09T03:23:21.247Z,99571.73
2019-04-09T03:26:40.388Z,99571.36
2019-04-09T03:30:01.517Z,99568.34
2019-04-09T03:33:27.422Z,99570.47
2019-04-09T03:36:56.296Z,99573.37
2019-04-09T03:40:09.463Z,99569.84
2019-04-09T03:43:28.612Z,99577.36
2019-04-09T03:46:42.655Z,99568.97
2019-04-09T03:49:55.069Z,99573.28
2019-04-09T03:53:20.782Z,99579.36
2019-04-09T03:56:49.398Z,99575.11
2019-04-09T04:00:04.160Z,99571.84
2019-04-09T04:03:16.457Z,99578.88
2019-04-09T04:06:32.267Z,99581.94
2019-04-09T04:09:58.152Z,99580.73
2019-04-09T04:13:20.332Z,99584.45
2019-04-09T04:16:49.659Z,99585.16
2019-04-09T04:20:11.556Z,99579.67
2019-04-09T04:23:29.302Z,99590.47
2019-04-09T04:26:51.522Z,99592.16
2019-04-09T04:30:26.368Z,99593.23
2019-04-09T04:33:56.125Z,99593.20
2019-04-09T04:37:06.563Z,99594.28
2019-04-09T04:40:39.070Z,99595.20
2019-04-09T04:43:50.426Z,99596.02
2019-04-09T04:47:05.470Z,99598.63
2019-04-09T04:50:26.086Z,99596.13
2019-04-09T04:53:48.890Z,99597.19
2019-04-09T04:57:06.020Z,99603.12
2019-04-09T05:00:18.683Z,99602.53
2019-04-09T05:03:41.568Z,99606.52
2019-04-09T05:07:08.008Z,99608.89
2019-04-09T05:10:29.938Z,99611.66
2019-04-09T05:13:45.674Z,99613.73
2019-04-09T05:17:14.214Z,99613.41
2019-04-09T05:20:37.502Z,99613.22
2019-04-09T05:23:54.073Z,99618.42
2019-04-09T05:27:04.954Z,99622.77
2019-04-09T05:30:24.606Z,99621.63
2019-04-09T05:33:45.435Z,99625.61
2019-04-09T05:37:23.447Z,99628.11
2019-04-09T05:40:45.973Z,99629.42
2019-04-09T05:44:12.451Z,99635.90
2019-04-09T05:47:26.189Z,99626.81
2019-04-09T05:50:47.638Z,99635.01
2019-04-09T05:53:57.389Z,99636.38
2019-04-09T05:57:11.492Z,99634.23
2019-04-09T06:00:42.895Z,99628.99
2019-04-09T06:04:11.784Z,99634.38
2019-04-09T06:07:33.220Z,99626.89
2019-04-09T06:10:36.908Z,99635.12
2019-04-09T06:13:39.937Z,99629.91
2019-04-09T06:16:43.301Z,99631.52
2019-04-09T06:19:46.421Z,99629.48
2019-04-09T06:22:49.739Z,99631.84
2019-04-09T06:25:53.684Z,99637.52
2019-04-09T06:28:57.163Z,99636.90
2019-04-09T06:32:05.204Z,99641.45
2019-04-09T06:35:24.428Z,99641.17
2019-04-09T06:38:48.101Z,99637.48
2019-04-09T06:42:06.650Z,99638.42
2019-04-09T06:45:32.382Z,99642.05
2019-04-09T06:49:10.230Z,99642.38
2019-04-09T06:52:34.826Z,99639.12
2019-04-09T06:55:57.672Z,99643.49
2019-04-09T06:59:25.816Z,99641.89
2019-04-09T07:02:36.632Z,99642.67
2019-04-09T07:06:18.065Z,99643.54
2019-04-09T07:09:47.687Z,99644.69
2019-04-09T07:13:01.834Z,99650.17
2019-04-09T07:16:27.872Z,99647.38
2019-04-09T07:19:49.451Z,99646.05
2019-04-09T07:23:05.751Z,99648.66
2019-04-09T07:26:45.988Z,99649.29
2019-04-09T07:30:20.283Z,99656.95
2019-04-09T07:33:26.507Z,99658.64
2019-04-09T07:36:58.389Z,99665.23
2019-04-09T07:40:35.625Z,99665.51
2019-04-09T07:44:19.108Z,99668.84
2019-04-09T07:47:39.875Z,99669.73
2019-04-09T07:51:12.193Z,99673.50
2019-04-09T07:54:43.444Z,99668.67
2019-04-09T07:58:06.830Z,99669.30
2019-04-09T08:01:31.533Z,99673.75
2019-04-09T08:04:48.969Z,99671.77
2019-04-09T08:08:21.054Z,99680.29
2019-04-09T08:11:33.799Z,99676.98
2019-04-09T08:15:06.010Z,99682.92
2019-04-09T08:18:24.571Z,99686.85
2019-04-09T08:21:44.608Z,99685.98
2019-04-09T08:25:09.235Z,99683.28
2019-04-09T08:28:36.343Z,99678.08
2019-04-09T08:32:06.935Z,99676.92
2019-04-09T08:35:19.989Z,99684.68
2019-04-09T08:38:34.942Z,99687.56
2019-04-09T08:41:56.597Z,99679.58
2019-04-09T08:45:20.577Z,99682.64
2019-04-09T08:48:30.761Z,99677.11
2019-04-09T08:51:49.664Z,99686.27
2019-04-09T08:54:59.363Z,99686.45
2019-04-09T08:58:06.234Z,99683.63
2019-04-09T09:01:52.097Z,99683.46
2019-04-09T09:04:49.050Z,99687.33
2019-04-09T09:08:09.127Z,99683.58
2019-04-09T09:11:28.471Z,99682.13
2019-04-09T09:14:51.821Z,99681.97
2019-04-09T09:18:03.590Z,99682.08
2019-04-09T09:21:29.268Z,99683.79
2019-04-09T09:24:51.340Z,99686.23
2019-04-09T09:28:16.648Z,99679.95
2019-04-09T09:31:40.767Z,99688.83
2019-04-09T09:35:03.647Z,99684.95
2019-04-09T09:38:36.325Z,99683.56
2019-04-09T09:41:48.413Z,99695.45
2019-04-09T09:45:12.378Z,99689.81
2019-04-09T09:48:47.899Z,99688.21
2019-04-09T09:52:20.057Z,99687.55
2019-04-09T09:55:56.995Z,99679.92
2019-04-09T09:59:20.693Z,99684.55
2019-04-09T10:02:35.771Z,99678.36
2019-04-09T10:05:49.885Z,99683.00
2019-04-09T10:09:16.387Z,99675.38
2019-04-09T10:12:39.617Z,99668.42
2019-04-09T10:15:57.100Z,99656.63
2019-04-09T10:19:23.096Z,99662.42
2019-04-09T10:22:44.059Z,99664.69
2019-04-09T10:26:19.320Z,99661.34
2019-04-09T10:29:37.927Z,99666.77
2019-04-09T10:33:12.885Z,99661.41
2019-04-09T10:36:37.463Z,99650.13
2019-04-09T10:40:06.552Z,99650.70
2019-04-09T10:43:12.930Z,99658.66
2019-04-09T10:46:42.575Z,99654.40
2019-04-09T10:50:11.947Z,99651.53
2019-04-09T10:53:35.757Z,99657.00
2019-04-09T10:56:53.226Z,99653.09
2019-04-09T11:00:16.388Z,99650.86
2019-04-09T11:03:50.645Z,99643.19
2019-04-09T11:07:17.189Z,99642.64
2019-04-09T11:10:49.365Z,99644.39
2019-04-09T11:14:09.600Z,99641.45
2019-04-09T11:17:40.851Z,99652.13
2019-04-09T11:21:12.259Z,99652.75
2019-04-09T11:24:38.349Z,99644.36
2019-04-09T11:28:05.795Z,99642.70
2019-04-09T11:31:45.500Z,99640.40
2019-04-09T11:34:52.031Z,99646.62
2019-04-09T11:38:15.269Z,99646.30
2019-04-09T11:41:23.523Z,99643.42
2019-04-09T11:44:49.223Z,99647.08
2019-04-09T11:48:11.827Z,99654.79
2019-04-09T11:51:33.951Z,99649.23
2019-04-09T11:54:56.613Z,99652.41
2019-04-09T11:58:30.638Z,99644.97
2019-04-09T12:02:00.050Z,99643.00
2019-04-09T12:05:04.632Z,99647.77
2019-04-09T12:08:37.021Z,99640.22
2019-04-09T12:11:58.270Z,99635.27
2019-04-09T12:15:24.616Z,99638.27
2019-04-09T12:18:37.872Z,99638.95
2019-04-09T12:22:01.731Z,99636.91
2019-04-09T12:25:15.710Z,99633.38
2019-04-09T12:28:41.862Z,99631.49
2019-04-09T12:32:14.785Z,99639.20
2019-04-09T12:35:36.223Z,99627.24
2019-04-09T12:39:07.670Z,99627.45
2019-04-09T12:42:20.431Z,99623.38
2019-04-09T12:45:31.367Z,99624.42
2019-04-09T12:48:48.619Z,99631.19
2019-04-09T12:52:11.412Z,99624.64
2019-04-09T12:55:30.578Z,99621.88
2019-04-09T12:58:49.054Z,99625.48
2019-04-09T13:02:27.998Z,99625.70
2019-04-09T13:05:48.762Z,99618.52
2019-04-09T13:09:21.098Z,99619.77
2019-04-09T13:12:44.426Z,99620.97
2019-04-09T13:15:59.495Z,99612.44
2019-04-09T13:19:27.153Z,99615.58
2019-04-09T13:22:54.294Z,99611.41
2019-04-09T13:26:16.119Z,99615.09
2019-04-09T13:29:45.280Z,99610.55
2019-04-09T13:33:10.923Z,99598.39
2019-04-09T13:36:39.512Z,99608.05
2019-04-09T13:40:07.875Z,99598.77
2019-04-09T13:43:31.333Z,99589.87
2019-04-09T13:46:58.271Z,99588.38
2019-04-09T13:50:30.822Z,99599.42
2019-04-09T13:53:35.454Z,99583.41
2019-04-09T13:56:39.032Z,99586.46
2019-04-09T13:59:42.602Z,99587.80
2019-04-09T14:03:17.929Z,99590.01
2019-04-09T14:06:06.620Z,99587.65
2019-04-09T14:09:10.021Z,99583.16
2019-04-09T14:12:13.060Z,99580.00
2019-04-09T14:15:16.518Z,99584.34
2019-04-09T14:18:19.999Z,99585.59
2019-04-09T14:21:23.050Z,99578.62
2019-04-09T14:24:26.000Z,99575.82
2019-04-09T14:27:34.938Z,99585.56
2019-04-09T14:34:03.130Z,99588.91
2019-04-09T14:37:06.235Z,99587.33
2019-04-09T14:40:09.928Z,99579.45
2019-04-09T14:43:13.365Z,99591.00
2019-04-09T14:46:17.608Z,99593.49
2019-04-09T14:49:21.702Z,99588.06
2019-04-09T14:52:25.429Z,99583.60
2019-04-09T14:55:31.139Z,99577.23
2019-04-09T14:58:33.650Z,99588.18
2019-04-09T15:01:36.921Z,99584.47
2019-04-09T15:04:39.920Z,99579.34
2019-04-09T15:07:43.921Z,99581.33
2019-04-09T15:10:47.042Z,99581.03
2019-04-09T15:13:59.487Z,99586.67
2019-04-09T15:17:08.476Z,99582.57
2019-04-09T15:20:13.087Z,99587.36
2019-04-09T15:23:16.285Z,99586.57
2019-04-09T15:26:19.643Z,99583.61
2019-04-09T15:29:23.154Z,99585.88
2019-04-09T15:32:28.086Z,99587.59
2019-04-09T15:35:32.671Z,99583.11
2019-04-09T15:38:36.343Z,99585.49
2019-04-09T15:41:39.381Z,99592.75
2019-04-09T15:44:42.724Z,99586.28
2019-04-09T15:47:45.703Z,99590.48
2019-04-09T15:50:48.688Z,99588.48
2019-04-09T15:53:52.158Z,99589.52
2019-04-09T15:56:55.220Z,99593.84
2019-04-09T15:59:59.459Z,99594.52
2019-04-09T16:03:13.320Z,99600.06
2019-04-09T16:06:08.038Z,99599.03
2019-04-09T16:09:19.370Z,99597.17
2019-04-09T16:12:22.841Z,99603.11
2019-04-09T16:15:26.672Z,99594.91
2019-04-09T16:18:30.051Z,99601.19
2019-04-09T16:21:33.247Z,99606.27
2019-04-09T16:24:36.479Z,99607.65
2019-04-09T16:27:40.179Z,99605.86
2019-04-09T16:30:44.086Z,99609.13
2019-04-09T16:33:59.093Z,99607.72
2019-04-09T16:37:04.009Z,99608.66
2019-04-09T16:39:58.564Z,99603.05
2019-04-09T16:43:04.714Z,99610.59
2019-04-09T16:46:08.277Z,99610.08
2019-04-09T16:49:12.378Z,99601.96
2019-04-09T16:52:15.837Z,99602.06
2019-04-09T16:55:19.911Z,99608.92
2019-04-09T16:58:24.866Z,99602.90
2019-04-09T17:01:27.901Z,99605.45
2019-04-09T17:04:31.778Z,99612.73
2019-04-09T17:07:35.654Z,99615.58
2019-04-09T17:10:39.564Z,99614.17
2019-04-09T17:13:42.710Z,99617.85
2019-04-09T17:16:46.754Z,99617.08
2019-04-09T17:19:52.075Z,99615.18
2019-04-09T17:22:55.515Z,99616.82
2019-04-09T17:25:59.932Z,99618.63
2019-04-09T17:29:03.035Z,99622.89
2019-04-09T17:32:05.978Z,99625.31
2019-04-09T17:35:08.959Z,99629.06
2019-04-09T17:38:12.784Z,99629.00
2019-04-09T17:41:16.601Z,99630.13
2019-04-09T17:44:19.647Z,99632.80
2019-04-09T17:47:22.694Z,99640.20
2019-04-09T17:50:26.225Z,99637.39
2019-04-09T17:53:30.806Z,99637.18
2019-04-09T17:56:34.255Z,99633.98
2019-04-09T17:59:37.588Z,99637.69
2019-04-09T18:02:40.976Z,99635.48
2019-04-09T18:05:43.983Z,99639.12
2019-04-09T18:08:47.263Z,99639.42
2019-04-09T18:11:51.421Z,99648.52
2019-04-09T18:14:54.332Z,99647.08
2019-04-09T18:17:57.915Z,99644.13
2019-04-09T18:21:02.511Z,99651.13
2019-04-09T18:24:06.812Z,99648.52
2019-04-09T18:27:10.767Z,99654.70
2019-04-09T18:30:16.030Z,99651.89
2019-04-09T18:33:21.053Z,99647.06
2019-04-09T18:36:24.380Z,99655.33
2019-04-09T18:39:28.075Z,99660.10
2019-04-09T18:42:31.285Z,99656.25
2019-04-09T18:45:35.310Z,99663.97
2019-04-09T18:48:44.234Z,99658.70
2019-04-09T18:51:44.795Z,99668.91
2019-04-09T18:54:48.238Z,99673.47
2019-04-09T18:57:52.382Z,99668.86
2019-04-09T19:00:55.409Z,99674.41
2019-04-09T19:04:06.897Z,99682.14
2019-04-09T19:07:03.990Z,99685.10
2019-04-09T19:10:08.437Z,99685.94
2019-04-09T19:13:12.918Z,99692.12
2019-04-09T19:16:16.214Z,99695.27
2019-04-09T19:19:20.505Z,99693.19
2019-04-09T19:22:23.505Z,99700.11
2019-04-09T19:25:28.174Z,99704.50
2019-04-09T19:28:33.024Z,99700.86
2019-04-09T19:31:36.290Z,99702.05
2019-04-09T19:34:39.421Z,99708.07
2019-04-09T19:37:42.795Z,99711.41
2019-04-09T19:40:46.696Z,99705.15
2019-04-09T19:43:50.021Z,99707.07
2019-04-09T19:46:53.217Z,99709.63
2019-04-09T19:49:56.584Z,99712.28
2019-04-09T19:52:59.939Z,99718.87
2019-04-09T19:56:03.055Z,99709.70
2019-04-09T19:59:07.102Z,99716.83
2019-04-09T20:02:10.390Z,99723.89
2019-04-09T20:05:25.058Z,99723.53
2019-04-09T20:08:18.832Z,99722.90
2019-04-09T20:11:22.235Z,99725.30
2019-04-09T20:14:26.346Z,99721.11
2019-04-09T20:17:29.536Z,99719.54
2019-04-09T20:20:32.823Z,99717.61
2019-04-09T20:23:35.780Z,99724.07
2019-04-09T20:26:40.130Z,99727.21
2019-04-09T20:29:43.506Z,99723.38
2019-04-09T20:32:46.879Z,99724.37
2019-04-09T20:35:52.453Z,99728.33
2019-04-09T20:38:55.449Z,99729.71
2019-04-09T20:41:58.461Z,99732.34
2019-04-09T20:45:02.554Z,99739.75
2019-04-09T20:48:06.785Z,99733.17
2019-04-09T20:51:10.484Z,99729.87
2019-04-09T20:54:19.499Z,99738.98
2019-04-09T20:57:22.373Z,99743.16
2019-04-09T21:00:53.506Z,99735.80
2019-04-09T21:04:05.970Z,99739.78
2019-04-09T21:07:09.497Z,99746.73
2019-04-09T21:10:12.895Z,99745.56
2019-04-09T21:13:16.729Z,99742.00
2019-04-09T21:16:20.440Z,99744.83
2019-04-09T21:19:23.545Z,99745.55
2019-04-09T21:22:26.481Z,99750.11
2019-04-09T21:25:29.745Z,99744.32
2019-04-09T21:28:33.234Z,99743.38
2019-04-09T21:31:36.311Z,99740.11
2019-04-09T21:34:39.533Z,99750.11
2019-04-09T21:37:42.454Z,99742.05
2019-04-09T21:40:58.206Z,99738.52
2019-04-09T21:44:02.528Z,99742.27
2019-04-09T21:47:07.909Z,99742.06
2019-04-09T21:50:12.705Z,99740.34
2019-04-09T21:53:15.884Z,99741.28
2019-04-09T21:56:19.371Z,99743.38
2019-04-09T21:59:22.659Z,99748.52
2019-04-09T22:02:26.720Z,99741.73
2019-04-09T22:05:30.142Z,99752.27
2019-04-09T22:08:34.071Z,99756.69
2019-04-09T22:11:38.217Z,99755.11
2019-04-09T22:14:41.604Z,99756.11
2019-04-09T22:17:45.833Z,99757.61
2019-04-09T22:20:49.792Z,99756.90
2019-04-09T22:23:55.370Z,99766.96
2019-04-09T22:26:58.355Z,99762.28
2019-04-09T22:30:01.704Z,99767.56
2019-04-09T22:33:24.408Z,99767.81
2019-04-09T22:36:35.118Z,99769.39
2019-04-09T22:39:33.824Z,99769.05
2019-04-09T22:42:37.979Z,99769.47
2019-04-09T22:45:41.965Z,99770.42
2019-04-09T22:48:45.050Z,99772.13
2019-04-09T22:51:47.972Z,99773.53
2019-04-09T22:54:51.902Z,99777.58
2019-04-09T22:57:56.205Z,99780.79
2019-04-09T23:01:18.482Z,99782.27
2019-04-09T23:04:42.304Z,99779.62
2019-04-09T23:08:03.622Z,99783.03
2019-04-09T23:11:16.793Z,99785.72
2019-04-09T23:14:20.141Z,99787.31
2019-04-09T23:17:23.976Z,99786.75
2019-04-09T23:20:28.175Z,99785.08
2019-04-09T23:23:31.343Z,99785.17
2019-04-09T23:26:35.348Z,99784.06
2019-04-09T23:29:39.309Z,99791.52
2019-04-09T23:32:43.675Z,99792.28
2019-04-09T23:35:47.627Z,99788.55
2019-04-09T23:38:51.690Z,99789.95
2019-04-09T23:41:55.039Z,99789.33
2019-04-09T23:44:57.994Z,99792.46
2019-04-09T23:48:01.806Z,99792.77
2019-04-09T23:51:06.303Z,99791.41
2019-04-09T23:54:10.632Z,99796.83
2019-04-09T23:57:14.071Z,99792.55
